الصفحة الرئيسية
METAR-TAF:

METAR-TAF

مطار :

مالابو, غينيا الاستوائية

مطار مالابو

دائرة عرض: 03-45-18N, خط طول: 08-42-31E, ارتفاع: 23 متر

مراقبة الطقس الحالي

تاريخ ووقت الإصدار 42 دقيقة قبل الساعة 03:00UTC
ريح 2 عقدة من الجنوب
درجة الحرارة 23°درجة مئوية
الرطوبة 89%
ضغط 1010 hPa
الرؤية 10 كم أو أكثر
غيوم قليلة على ارتفاع 1200 قدم

METAR: FGSL 190300Z 17002KT 9999 FEW012 23/21 Q1010 NOSIG

زمن: 04:42 (03:42 UTC)

توقعات

تاريخ ووقت الإصدار 4ساعات و 42 دقيقة قبل الساعة 23:00UTC
التوقعات صالحة من19 الساعة 00 UTC إلى 20 الساعة 06 UTC
ريح 4 عقدة من الغرب/الجنوب الغربي
الرؤية 10 كم أو أكثر
غيوم قليلة على ارتفاع 1000 قدم
مؤقت
من 19 الساعة 04 UTC إلى 19 الساعة 07 UTC
الرؤية: 4500 متر
غيوم مفككة على ارتفاع 1000 قدم
غشاء
نظرية الاحتمالات 30% :
مؤقت
من 19 الساعة 10 UTC إلى 19 الساعة 17 UTC
الرؤية: 3000 متر
غيوم مفككة على ارتفاع 1200 قدم
غيوم قليلة على ارتفاع 2000 قدم, مزنة ركامية.
العجاج

TAF: FGSL 182300Z 1900/2006 24004KT 9999 FEW010 TEMPO 1904/1907 4500 BR BKN010 PROB30 TEMPO 1910/1917 3000 HZ BKN012 FEW020CB

أرصاد الطقس والتوقعات من أكثر من 4000 مطار (تقارير الطقس للمطار METAR والتنبؤ بالطقس بالمطارTAF).

المحطات المتاحة هي النقط الصفراء والحمراء على الخريطة.

حرك المؤشر فوق النقطة لمعرفة اسم المحطة.

ثم انقر لمعرفة أرصاد وتوقعات الطقس.

لتغيير الخارطة: اضغط على الأزرار الخضراء مع رمز الصليب الأسود للتكبير. على الزر الأخضر مع شرطة للتصغير، أو على الأسهم الخضراء للخرائط المجاورة.


METAR-TAF: